EDW84 LSZH-FACT
Flight info
| Callsign | EDW84 |
|---|---|
| Flight time | N/A |
| Altitude | 34000 |
| Route | VEBIT T53 GERSA DCT SOSON DCT ODINA DCT PIDAD/N0488F350 DCT TALEP DCT VAREK DCT ERPIN DCT ETOIL DCT CIRTA UM2 CSO UM998 TOBUK/N0490F370 UM998 ENBUT DCT EBIMU UG727 BZ/N0489F390 DCT KSA UT943 IMVEX/N0489F380 UT943 UNLOK/N0486F390 UT943 VEDRY/N0483F400 UN185 OKLOK UQ23 DUMDO DCT ERDAS ERDAS1C |
| Aircraft | A359/H-SABDE2E3FGHIJ1J2J3J4J5M1RWXYZ/LB1D1 |
Departure
| Time | N/A |
|---|---|
| Airport | Zürich Airport (LSZH) |
Arrival
| Time | 2026-05-05 07:00 |
|---|---|
| Airport | Cape Town International Airport (FACT) |
| Time | Latitude | Longitude | Altitude | Speed | Heading |
|---|---|---|---|---|---|
| 2026-05-05 06:26 | -31.83418 | 19.15527 | 40072 ft | 516 kts | 172° |
| 2026-05-05 06:27 | -31.95129 | 19.18171 | 40081 ft | 515 kts | 172° |
| 2026-05-05 06:28 | -32.01022 | 19.19505 | 40067 ft | 514 kts | 172° |
| 2026-05-05 06:28 | -32.08005 | 19.21087 | 40067 ft | 513 kts | 172° |
| 2026-05-05 06:29 | -32.15025 | 19.22679 | 40065 ft | 513 kts | 172° |
| 2026-05-05 06:29 | -32.22039 | 19.24272 | 40067 ft | 513 kts | 171° |
| 2026-05-05 06:30 | -32.29048 | 19.25871 | 40062 ft | 511 kts | 171° |
| 2026-05-05 06:30 | -32.36048 | 19.27465 | 40062 ft | 510 kts | 171° |
| 2026-05-05 06:30 | -32.39457 | 19.28243 | 39738 ft | 503 kts | 172° |
| 2026-05-05 06:31 | -32.42868 | 19.29020 | 39024 ft | 507 kts | 172° |
| 2026-05-05 06:31 | -32.46137 | 19.29764 | 38304 ft | 510 kts | 171° |
| 2026-05-05 06:31 | -32.49625 | 19.30560 | 37601 ft | 509 kts | 171° |
| 2026-05-05 06:31 | -32.53102 | 19.31354 | 36944 ft | 509 kts | 171° |
| 2026-05-05 06:32 | -32.56591 | 19.32153 | 36267 ft | 509 kts | 171° |
| 2026-05-05 06:32 | -32.60076 | 19.32951 | 35581 ft | 510 kts | 171° |
| 2026-05-05 06:32 | -32.63561 | 19.33750 | 34871 ft | 511 kts | 171° |
| 2026-05-05 06:32 | -32.67070 | 19.34554 | 34066 ft | 515 kts | 171° |
| 2026-05-05 06:33 | -32.70607 | 19.35365 | 33155 ft | 518 kts | 171° |
| 2026-05-05 06:33 | -32.74099 | 19.36168 | 32292 ft | 519 kts | 171° |
| 2026-05-05 06:33 | -32.77651 | 19.36986 | 31440 ft | 520 kts | 171° |
| 2026-05-05 06:33 | -32.81208 | 19.37806 | 30662 ft | 520 kts | 171° |
| 2026-05-05 06:34 | -32.84767 | 19.38511 | 29993 ft | 516 kts | 174° |
| 2026-05-05 06:34 | -32.88313 | 19.39015 | 29306 ft | 510 kts | 176° |
| 2026-05-05 06:34 | -32.91829 | 19.39430 | 28688 ft | 505 kts | 176° |
| 2026-05-05 06:34 | -32.95304 | 19.39825 | 28082 ft | 499 kts | 176° |
| 2026-05-05 06:35 | -32.98743 | 19.40232 | 27476 ft | 494 kts | 175° |
| 2026-05-05 06:35 | -33.02148 | 19.40658 | 26871 ft | 490 kts | 175° |
| 2026-05-05 06:35 | -33.05526 | 19.41100 | 26279 ft | 485 kts | 175° |
| 2026-05-05 06:35 | -33.08868 | 19.41551 | 25685 ft | 481 kts | 174° |
| 2026-05-05 06:36 | -33.12181 | 19.42006 | 25101 ft | 477 kts | 174° |
| 2026-05-05 06:36 | -33.15469 | 19.42460 | 24517 ft | 474 kts | 174° |
| 2026-05-05 06:36 | -33.18730 | 19.42884 | 23932 ft | 470 kts | 177° |
| 2026-05-05 06:36 | -33.21940 | 19.42754 | 23287 ft | 464 kts | 190° |
| 2026-05-05 06:37 | -33.25007 | 19.41674 | 22664 ft | 455 kts | 206° |
| 2026-05-05 06:37 | -33.27632 | 19.39648 | 22096 ft | 444 kts | 224° |
| 2026-05-05 06:37 | -33.29677 | 19.36954 | 21764 ft | 429 kts | 233° |
| 2026-05-05 06:37 | -33.31451 | 19.34229 | 21628 ft | 414 kts | 234° |
| 2026-05-05 06:38 | -33.33170 | 19.31544 | 21498 ft | 400 kts | 234° |
| 2026-05-05 06:38 | -33.34835 | 19.28943 | 21355 ft | 386 kts | 234° |
| 2026-05-05 06:38 | -33.36440 | 19.26438 | 21174 ft | 374 kts | 234° |
| 2026-05-05 06:38 | -33.37999 | 19.24006 | 21007 ft | 362 kts | 234° |
| 2026-05-05 06:39 | -33.39512 | 19.21645 | 20843 ft | 351 kts | 234° |
| 2026-05-05 06:39 | -33.40984 | 19.19364 | 20562 ft | 341 kts | 233° |
| 2026-05-05 06:39 | -33.42511 | 19.17279 | 20098 ft | 332 kts | 229° |
| 2026-05-05 06:39 | -33.44083 | 19.15269 | 19721 ft | 330 kts | 228° |
| 2026-05-05 06:40 | -33.45649 | 19.13284 | 19365 ft | 326 kts | 228° |
| 2026-05-05 06:40 | -33.47200 | 19.11316 | 18995 ft | 323 kts | 227° |
| 2026-05-05 06:40 | -33.48736 | 19.09363 | 18632 ft | 321 kts | 226° |
| 2026-05-05 06:40 | -33.50262 | 19.07422 | 18275 ft | 319 kts | 226° |
| 2026-05-05 06:41 | -33.51777 | 19.05495 | 17895 ft | 316 kts | 226° |
| 2026-05-05 06:41 | -33.53272 | 19.03590 | 17629 ft | 309 kts | 226° |
| 2026-05-05 06:41 | -33.54719 | 19.01747 | 17501 ft | 298 kts | 226° |
| 2026-05-05 06:41 | -33.56119 | 18.99961 | 17274 ft | 290 kts | 226° |
| 2026-05-05 06:42 | -33.57488 | 18.98214 | 16991 ft | 287 kts | 226° |
| 2026-05-05 06:42 | -33.58852 | 18.96477 | 16684 ft | 285 kts | 226° |
| 2026-05-05 06:42 | -33.60204 | 18.94752 | 16380 ft | 283 kts | 226° |
| 2026-05-05 06:42 | -33.61549 | 18.93031 | 16059 ft | 281 kts | 226° |
| 2026-05-05 06:43 | -33.62885 | 18.91321 | 15754 ft | 280 kts | 226° |
| 2026-05-05 06:43 | -33.64195 | 18.89644 | 15455 ft | 278 kts | 226° |
| 2026-05-05 06:43 | -33.65519 | 18.87949 | 15155 ft | 277 kts | 226° |
| 2026-05-05 06:43 | -33.66832 | 18.86268 | 14856 ft | 275 kts | 226° |
| 2026-05-05 06:44 | -33.68139 | 18.84593 | 14559 ft | 274 kts | 226° |
| 2026-05-05 06:44 | -33.69447 | 18.82919 | 14266 ft | 273 kts | 226° |
| 2026-05-05 06:44 | -33.70745 | 18.81260 | 13961 ft | 272 kts | 226° |
| 2026-05-05 06:44 | -33.72016 | 18.79627 | 13655 ft | 271 kts | 226° |
| 2026-05-05 06:45 | -33.73297 | 18.77980 | 13350 ft | 269 kts | 226° |
| 2026-05-05 06:45 | -33.74567 | 18.76346 | 13065 ft | 266 kts | 225° |
| 2026-05-05 06:45 | -33.75825 | 18.74730 | 12782 ft | 263 kts | 225° |
| 2026-05-05 06:45 | -33.77070 | 18.73130 | 12501 ft | 261 kts | 226° |
| 2026-05-05 06:46 | -33.78313 | 18.71550 | 12213 ft | 259 kts | 224° |
| 2026-05-05 06:46 | -33.79755 | 18.70291 | 11944 ft | 254 kts | 203° |
| 2026-05-05 06:46 | -33.81433 | 18.69851 | 11680 ft | 250 kts | 179° |
| 2026-05-05 06:46 | -33.83140 | 18.70168 | 11414 ft | 247 kts | 166° |
| 2026-05-05 06:47 | -33.84802 | 18.70700 | 11140 ft | 245 kts | 165° |
| 2026-05-05 06:47 | -33.86442 | 18.71245 | 10887 ft | 243 kts | 165° |
| 2026-05-05 06:47 | -33.88068 | 18.71779 | 10626 ft | 241 kts | 165° |
| 2026-05-05 06:47 | -33.89689 | 18.72305 | 10372 ft | 240 kts | 166° |
| 2026-05-05 06:48 | -33.91278 | 18.72816 | 10131 ft | 239 kts | 166° |
| 2026-05-05 06:48 | -33.92932 | 18.73345 | 9916 ft | 251 kts | 166° |
| 2026-05-05 06:48 | -33.94642 | 18.73891 | 9587 ft | 256 kts | 166° |
| 2026-05-05 06:48 | -33.96367 | 18.74441 | 9303 ft | 256 kts | 166° |
| 2026-05-05 06:49 | -33.98093 | 18.74991 | 9024 ft | 256 kts | 166° |
| 2026-05-05 06:49 | -33.99813 | 18.75540 | 8750 ft | 255 kts | 166° |
| 2026-05-05 06:49 | -34.01523 | 18.76086 | 8485 ft | 254 kts | 166° |
| 2026-05-05 06:49 | -34.03228 | 18.76631 | 8221 ft | 253 kts | 166° |
| 2026-05-05 06:50 | -34.04927 | 18.77174 | 7945 ft | 252 kts | 166° |
| 2026-05-05 06:50 | -34.06616 | 18.77713 | 7679 ft | 252 kts | 166° |
| 2026-05-05 06:50 | -34.08308 | 18.78257 | 7335 ft | 251 kts | 166° |
| 2026-05-05 06:50 | -34.09970 | 18.78805 | 7002 ft | 250 kts | 166° |
| 2026-05-05 06:51 | -34.11650 | 18.79357 | 6629 ft | 250 kts | 166° |
| 2026-05-05 06:51 | -34.13330 | 18.79912 | 6494 ft | 251 kts | 166° |
| 2026-05-05 06:51 | -34.15021 | 18.80463 | 6466 ft | 251 kts | 166° |
| 2026-05-05 06:51 | -34.16700 | 18.81006 | 6165 ft | 248 kts | 166° |
| 2026-05-05 06:52 | -34.18395 | 18.81374 | 5725 ft | 247 kts | 184° |
| 2026-05-05 06:52 | -34.20012 | 18.80802 | 5352 ft | 242 kts | 214° |
| 2026-05-05 06:52 | -34.21110 | 18.79382 | 5113 ft | 232 kts | 243° |
| 2026-05-05 06:52 | -34.21701 | 18.77591 | 4839 ft | 229 kts | 253° |
| 2026-05-05 06:53 | -34.22167 | 18.75750 | 4519 ft | 227 kts | 254° |
| 2026-05-05 06:53 | -34.22607 | 18.73957 | 4337 ft | 219 kts | 254° |
| 2026-05-05 06:53 | -34.22780 | 18.72154 | 3993 ft | 217 kts | 279° |
| 2026-05-05 06:53 | -34.22165 | 18.70536 | 3731 ft | 213 kts | 307° |
| 2026-05-05 06:54 | -34.21193 | 18.69190 | 3485 ft | 212 kts | 312° |
| 2026-05-05 06:54 | -34.20102 | 18.67988 | 3225 ft | 213 kts | 324° |
| 2026-05-05 06:54 | -34.18769 | 18.67231 | 3019 ft | 212 kts | 341° |
| 2026-05-05 06:54 | -34.17337 | 18.66787 | 2976 ft | 212 kts | 344° |
| 2026-05-05 06:55 | -34.15906 | 18.66351 | 2980 ft | 211 kts | 343° |
| 2026-05-05 06:55 | -34.14552 | 18.65924 | 2988 ft | 194 kts | 344° |
| 2026-05-05 06:55 | -34.13305 | 18.65528 | 2987 ft | 179 kts | 342° |
| 2026-05-05 06:55 | -34.12146 | 18.65155 | 2911 ft | 167 kts | 342° |
| 2026-05-05 06:56 | -34.11040 | 18.64795 | 2694 ft | 162 kts | 342° |
| 2026-05-05 06:56 | -34.09970 | 18.64454 | 2456 ft | 157 kts | 343° |
| 2026-05-05 06:56 | -34.08929 | 18.64123 | 2231 ft | 152 kts | 343° |
| 2026-05-05 06:56 | -34.07935 | 18.63806 | 2022 ft | 143 kts | 343° |
| 2026-05-05 06:57 | -34.07003 | 18.63509 | 1841 ft | 135 kts | 343° |
| 2026-05-05 06:57 | -34.06102 | 18.63222 | 1666 ft | 133 kts | 343° |
| 2026-05-05 06:57 | -34.05209 | 18.62936 | 1469 ft | 133 kts | 345° |
| 2026-05-05 06:57 | -34.04310 | 18.62650 | 1294 ft | 134 kts | 345° |
| 2026-05-05 06:58 | -34.03406 | 18.62362 | 1107 ft | 134 kts | 345° |
| 2026-05-05 06:58 | -34.02511 | 18.62076 | 939 ft | 133 kts | 346° |
| 2026-05-05 06:58 | -34.01614 | 18.61788 | 774 ft | 137 kts | 346° |
| 2026-05-05 06:58 | -34.00692 | 18.61481 | 587 ft | 137 kts | 346° |
| 2026-05-05 06:59 | -33.99772 | 18.61181 | 414 ft | 136 kts | 348° |
| 2026-05-05 06:59 | -33.98853 | 18.60910 | 236 ft | 137 kts | 347° |
| 2026-05-05 06:59 | -33.97948 | 18.60615 | 166 ft | 130 kts | 355° |
| 2026-05-05 06:59 | -33.97235 | 18.60402 | 159 ft | 74 kts | 345° |
| 2026-05-05 07:00 | -33.96814 | 18.60268 | 163 ft | 61 kts | 345° |
| 2026-05-05 07:00 | -33.96471 | 18.60149 | 163 ft | 31 kts | 329° |
| 2026-05-05 07:00 | -33.96320 | 18.59972 | 160 ft | 28 kts | 314° |
| 2026-05-05 07:00 | -33.96237 | 18.59872 | 160 ft | 16 kts | 315° |
| 2026-05-05 07:01 | -33.96190 | 18.59806 | 159 ft | 9 kts | 288° |
| 2026-05-05 07:01 | -33.96215 | 18.59746 | 160 ft | 9 kts | 225° |
| 2026-05-05 07:01 | -33.96273 | 18.59730 | 160 ft | 10 kts | 171° |
| 2026-05-05 07:01 | -33.96350 | 18.59746 | 160 ft | 13 kts | 170° |
| 2026-05-05 07:02 | -33.96439 | 18.59764 | 160 ft | 11 kts | 170° |
| 2026-05-05 07:02 | -33.96524 | 18.59782 | 160 ft | 14 kts | 170° |
| 2026-05-05 07:02 | -33.96573 | 18.59797 | 160 ft | 6 kts | 166° |
| 2026-05-05 07:02 | -33.96615 | 18.59801 | 160 ft | 4 kts | 207° |
| 2026-05-05 07:03 | -33.96635 | 18.59771 | 160 ft | 4 kts | 232° |
| 2026-05-05 07:03 | -33.96642 | 18.59741 | 160 ft | 3 kts | 257° |
| 2026-05-05 07:03 | -33.96645 | 18.59723 | 160 ft | 1 kts | 256° |
| 2026-05-05 07:03 | -33.96646 | 18.59721 | 160 ft | 0 kts | 256° |